createdAt,value
2023-05-13T00:00:23.803Z,15.17
2023-05-13T00:01:26.419Z,15.03
2023-05-13T00:02:28.719Z,15.08
2023-05-13T00:03:31.040Z,15.08
2023-05-13T00:04:33.228Z,15.08
2023-05-13T00:05:35.619Z,15.24
2023-05-13T00:06:38.074Z,15.30
2023-05-13T00:07:41.715Z,15.39
2023-05-13T00:08:44.222Z,14.96
2023-05-13T00:09:46.381Z,14.40
2023-05-13T00:10:49.009Z,14.45
2023-05-13T00:11:51.205Z,14.45
2023-05-13T00:12:53.443Z,14.44
2023-05-13T00:13:55.870Z,14.56
2023-05-13T00:14:58.088Z,14.58
2023-05-13T00:16:00.721Z,14.56
2023-05-13T00:17:04.847Z,14.52
2023-05-13T00:18:07.140Z,14.53
2023-05-13T00:19:09.423Z,14.71
2023-05-13T00:20:12.224Z,14.72
2023-05-13T00:21:14.394Z,14.73
2023-05-13T00:22:16.728Z,14.64
2023-05-13T00:23:18.932Z,14.65
2023-05-13T00:24:21.128Z,14.67
2023-05-13T00:25:23.538Z,14.77
2023-05-13T00:26:25.928Z,14.93
2023-05-13T00:27:28.362Z,14.93
2023-05-13T00:28:30.805Z,14.90
2023-05-13T00:29:33.325Z,14.72
2023-05-13T00:30:35.740Z,14.50
2023-05-13T00:31:38.047Z,14.50
2023-05-13T00:32:40.512Z,14.53
2023-05-13T00:33:44.347Z,14.52
2023-05-13T00:34:46.880Z,14.60
2023-05-13T00:35:49.263Z,14.67
2023-05-13T00:36:51.468Z,14.66
2023-05-13T00:37:53.745Z,14.53
2023-05-13T00:38:56.083Z,14.47
2023-05-13T00:39:58.315Z,14.63
2023-05-13T00:41:01.287Z,14.48
2023-05-13T00:42:04.982Z,14.30
2023-05-13T00:43:07.348Z,14.29
2023-05-13T00:44:09.563Z,14.32
2023-05-13T00:45:11.752Z,14.38
2023-05-13T00:46:15.704Z,14.46
2023-05-13T00:50:19.066Z,14.44
2023-05-13T00:51:22.554Z,14.47
2023-05-13T00:52:24.823Z,14.54
2023-05-13T00:53:27.162Z,14.55
2023-05-13T00:54:29.848Z,14.61
2023-05-13T00:55:32.390Z,14.46
2023-05-13T00:56:34.744Z,14.43
2023-05-13T00:57:38.040Z,14.46
2023-05-13T00:58:40.276Z,14.43
2023-05-13T00:59:42.532Z,14.48
2023-05-13T01:00:55.743Z,14.30
2023-05-13T01:02:34.853Z,14.42
2023-05-13T01:03:51.177Z,14.57
2023-05-13T01:04:56.536Z,14.37
2023-05-13T01:06:12.715Z,14.37
2023-05-13T01:07:20.912Z,14.30
2023-05-13T01:08:47.426Z,14.32
2023-05-13T01:10:11.395Z,14.01
2023-05-13T01:11:27.809Z,13.94
2023-05-13T01:12:35.055Z,13.92
2023-05-13T01:13:43.055Z,14.09
2023-05-13T01:14:54.182Z,14.02
2023-05-13T01:15:58.943Z,13.90
2023-05-13T01:17:05.877Z,14.00
2023-05-13T01:18:20.582Z,13.78
2023-05-13T01:19:56.127Z,13.84
2023-05-13T01:21:01.176Z,13.71
2023-05-13T01:22:03.603Z,13.59
2023-05-13T01:23:06.739Z,13.83
2023-05-13T01:24:10.306Z,13.91
2023-05-13T01:25:13.716Z,13.74
2023-05-13T01:26:16.317Z,13.92
2023-05-13T01:27:18.931Z,14.09
2023-05-13T01:28:21.525Z,13.95
2023-05-13T01:29:28.048Z,13.66
2023-05-13T01:30:31.201Z,13.59
2023-05-13T01:31:34.008Z,13.43
2023-05-13T01:32:37.719Z,13.49
2023-05-13T01:33:41.534Z,13.37
2023-05-13T01:34:44.686Z,13.38
2023-05-13T01:35:47.717Z,13.30
2023-05-13T01:36:51.951Z,13.26
2023-05-13T01:37:59.402Z,13.00
2023-05-13T01:39:03.408Z,12.90
2023-05-13T01:40:24.368Z,12.92
2023-05-13T01:41:30.561Z,12.96
2023-05-13T01:42:35.097Z,13.23
2023-05-13T01:43:37.389Z,13.19
2023-05-13T01:44:40.167Z,13.19
2023-05-13T01:45:42.413Z,13.26
2023-05-13T01:46:45.302Z,13.32
2023-05-13T01:47:48.572Z,13.39
2023-05-13T01:48:51.404Z,13.51
2023-05-13T01:49:53.654Z,13.53
2023-05-13T01:50:56.274Z,13.52
2023-05-13T01:51:59.227Z,13.44
2023-05-13T01:53:03.325Z,13.49
2023-05-13T01:54:05.983Z,13.47
2023-05-13T01:55:11.002Z,13.31
2023-05-13T01:56:14.176Z,13.32
2023-05-13T01:57:16.664Z,13.35
2023-05-13T01:58:18.920Z,13.26
2023-05-13T01:59:23.983Z,13.41
2023-05-13T02:00:26.262Z,13.44
2023-05-13T02:01:28.709Z,13.52
2023-05-13T02:02:30.980Z,13.60
2023-05-13T02:03:34.057Z,13.40
2023-05-13T02:04:36.360Z,13.45
2023-05-13T02:05:39.520Z,13.43
2023-05-13T02:06:43.621Z,13.47
2023-05-13T02:07:46.022Z,13.55
2023-05-13T02:08:48.577Z,13.63
2023-05-13T02:09:50.829Z,13.50
2023-05-13T02:10:57.063Z,13.44
2023-05-13T02:11:59.582Z,13.39
2023-05-13T02:13:01.844Z,13.37
2023-05-13T02:14:04.389Z,13.32
2023-05-13T02:15:07.048Z,13.24
2023-05-13T02:16:14.294Z,13.33
2023-05-13T02:17:16.597Z,13.34
2023-05-13T02:18:19.245Z,13.31
2023-05-13T02:19:21.808Z,13.43
2023-05-13T02:20:24.682Z,13.31
2023-05-13T02:21:27.007Z,13.15
2023-05-13T02:22:29.189Z,13.08
2023-05-13T02:23:31.351Z,13.18
2023-05-13T02:24:34.976Z,13.24
2023-05-13T02:25:37.227Z,13.23
2023-05-13T02:26:41.612Z,13.17
2023-05-13T02:27:43.978Z,13.29
2023-05-13T02:28:46.547Z,13.34
2023-05-13T02:29:49.649Z,13.07
2023-05-13T02:30:52.305Z,12.66
2023-05-13T02:31:55.623Z,12.79
2023-05-13T02:32:58.291Z,12.70
2023-05-13T02:34:00.537Z,12.77
2023-05-13T02:35:02.752Z,12.82
2023-05-13T02:36:05.215Z,12.90
2023-05-13T02:37:07.396Z,12.75
2023-05-13T02:38:16.094Z,12.84
2023-05-13T02:39:18.528Z,12.73
2023-05-13T02:40:20.931Z,12.91
2023-05-13T02:41:24.582Z,12.81
2023-05-13T02:42:27.179Z,12.78
2023-05-13T02:43:31.197Z,12.86
2023-05-13T02:44:38.779Z,12.78
2023-05-13T02:45:41.738Z,12.66
2023-05-13T02:46:45.313Z,12.81
2023-05-13T02:47:47.527Z,12.76
2023-05-13T02:48:49.795Z,12.87
2023-05-13T02:49:52.671Z,12.86
2023-05-13T02:50:54.866Z,12.93
2023-05-13T02:51:57.295Z,12.90
2023-05-13T02:53:07.054Z,12.85
2023-05-13T02:54:11.791Z,12.89
2023-05-13T02:55:14.467Z,12.92
2023-05-13T02:56:17.914Z,13.10
2023-05-13T02:57:20.233Z,13.13
2023-05-13T02:58:22.653Z,12.94
2023-05-13T02:59:25.053Z,12.85
2023-05-13T03:00:27.490Z,12.78
2023-05-13T03:01:31.142Z,12.89
2023-05-13T03:02:34.966Z,12.52
2023-05-13T03:03:37.641Z,12.48
2023-05-13T03:04:41.487Z,12.40
2023-05-13T03:05:43.753Z,12.41
2023-05-13T03:06:46.857Z,12.57
2023-05-13T03:07:49.294Z,12.61
2023-05-13T03:08:51.510Z,12.48
2023-05-13T03:09:54.112Z,12.38
2023-05-13T03:10:56.311Z,12.31
2023-05-13T03:11:58.609Z,12.48
2023-05-13T03:13:02.530Z,12.54
2023-05-13T03:14:04.840Z,12.50
2023-05-13T03:15:07.648Z,12.34
2023-05-13T03:16:09.916Z,12.26
2023-05-13T03:17:12.583Z,12.30
2023-05-13T03:18:15.148Z,12.14
2023-05-13T03:19:17.734Z,12.25
2023-05-13T03:20:20.378Z,12.08
2023-05-13T03:21:22.812Z,11.94
2023-05-13T03:22:25.042Z,12.03
2023-05-13T03:23:27.307Z,12.14
2023-05-13T03:24:32.434Z,12.22
2023-05-13T03:25:35.174Z,12.25
2023-05-13T03:26:38.119Z,12.21
2023-05-13T03:27:40.600Z,12.24
2023-05-13T03:28:43.815Z,12.23
2023-05-13T03:29:46.401Z,12.24
2023-05-13T03:30:49.162Z,12.27
2023-05-13T03:31:54.483Z,12.34
2023-05-13T03:32:58.868Z,12.20
2023-05-13T03:34:03.099Z,12.28
2023-05-13T03:35:05.844Z,12.31
2023-05-13T03:36:08.344Z,12.13
2023-05-13T03:37:10.542Z,12.21
2023-05-13T03:38:12.992Z,12.28
2023-05-13T03:39:19.777Z,12.10
2023-05-13T03:40:22.596Z,12.19
2023-05-13T03:41:28.112Z,11.89
2023-05-13T03:42:32.565Z,11.92
2023-05-13T03:43:38.035Z,12.13
2023-05-13T03:44:44.255Z,12.29
2023-05-13T03:45:48.861Z,12.25
2023-05-13T03:46:54.184Z,12.23
2023-05-13T03:47:56.844Z,12.18
2023-05-13T03:49:00.145Z,12.27
2023-05-13T03:50:04.397Z,12.31
2023-05-13T03:51:13.693Z,12.37
2023-05-13T03:52:16.799Z,12.43
2023-05-13T03:53:20.519Z,12.29
2023-05-13T03:54:23.089Z,11.93
2023-05-13T03:55:25.491Z,12.04
2023-05-13T03:56:28.242Z,11.78
2023-05-13T03:57:30.999Z,11.68
2023-05-13T03:58:33.519Z,11.76
2023-05-13T03:59:35.764Z,11.60
2023-05-13T04:00:38.389Z,11.58
2023-05-13T04:01:41.014Z,11.41
2023-05-13T04:02:44.583Z,11.45
2023-05-13T04:03:49.853Z,11.43
2023-05-13T04:04:52.202Z,11.43
2023-05-13T04:05:54.878Z,11.49
2023-05-13T04:06:57.178Z,11.12
2023-05-13T04:07:59.591Z,11.22
2023-05-13T04:09:04.529Z,11.12
2023-05-13T04:10:08.043Z,11.18
2023-05-13T04:11:10.389Z,11.11
2023-05-13T04:12:12.875Z,11.11
2023-05-13T04:13:15.091Z,11.15
2023-05-13T04:14:19.305Z,11.24
2023-05-13T04:15:21.719Z,11.42
2023-05-13T04:16:25.769Z,11.35
2023-05-13T04:17:28.174Z,11.41
2023-05-13T04:18:31.518Z,11.55
2023-05-13T04:19:33.778Z,11.66
2023-05-13T04:20:39.640Z,11.59
2023-05-13T04:21:42.219Z,11.67
2023-05-13T04:22:44.373Z,11.54
2023-05-13T04:23:46.749Z,11.51
2023-05-13T04:24:52.098Z,11.41
2023-05-13T04:25:54.340Z,11.54
2023-05-13T04:26:57.811Z,11.46
2023-05-13T04:28:00.978Z,11.52
2023-05-13T04:29:07.462Z,11.54
2023-05-13T04:30:10.900Z,11.51
2023-05-13T04:31:14.715Z,11.64
2023-05-13T04:32:22.245Z,11.77
2023-05-13T04:33:27.291Z,11.93
2023-05-13T04:34:29.524Z,11.90
2023-05-13T04:35:32.386Z,12.04
2023-05-13T04:36:37.113Z,12.07
2023-05-13T04:37:39.414Z,12.02
2023-05-13T04:38:45.055Z,12.03
2023-05-13T04:39:48.187Z,11.99
2023-05-13T04:40:52.377Z,11.95
2023-05-13T04:42:05.244Z,12.06
2023-05-13T04:43:08.282Z,12.10
2023-05-13T04:44:17.943Z,12.22
2023-05-13T04:45:20.919Z,12.32
2023-05-13T04:46:23.175Z,12.19
2023-05-13T04:47:27.041Z,12.19
2023-05-13T04:48:29.389Z,12.34
2023-05-13T04:49:33.545Z,12.28
2023-05-13T04:50:36.703Z,12.24
2023-05-13T04:51:39.825Z,12.00
2023-05-13T04:52:43.302Z,11.90
2023-05-13T04:53:46.120Z,11.92
2023-05-13T04:54:48.844Z,12.03
2023-05-13T04:55:57.156Z,12.13
2023-05-13T04:57:03.209Z,12.16
2023-05-13T04:58:06.314Z,12.03
2023-05-13T04:59:10.398Z,12.11
2023-05-13T05:00:13.871Z,12.17
2023-05-13T05:01:17.449Z,12.05
2023-05-13T05:02:20.026Z,12.12
2023-05-13T05:03:23.381Z,12.21
2023-05-13T05:04:25.955Z,12.39
2023-05-13T05:05:28.333Z,12.53
2023-05-13T05:06:31.345Z,12.66
2023-05-13T05:07:34.228Z,12.66
2023-05-13T05:08:37.039Z,12.80
2023-05-13T05:09:39.374Z,13.05
2023-05-13T05:10:41.592Z,13.08
2023-05-13T05:11:45.009Z,12.85
2023-05-13T05:12:48.393Z,12.79
2023-05-13T05:13:50.794Z,12.90
2023-05-13T05:14:53.018Z,12.85
2023-05-13T05:15:55.775Z,12.73
2023-05-13T05:16:58.226Z,12.87
2023-05-13T05:18:00.871Z,12.91
2023-05-13T05:19:03.465Z,13.03
2023-05-13T05:20:08.771Z,13.15
2023-05-13T05:21:11.420Z,13.15
2023-05-13T05:22:13.681Z,13.15
2023-05-13T05:23:16.045Z,13.29
2023-05-13T05:24:19.434Z,13.34
2023-05-13T05:25:24.803Z,13.35
2023-05-13T05:26:27.117Z,13.51
2023-05-13T05:27:29.686Z,13.55
2023-05-13T05:28:32.189Z,13.30
2023-05-13T05:29:34.386Z,13.27
2023-05-13T05:30:39.879Z,13.00
2023-05-13T05:31:48.289Z,13.08
2023-05-13T05:32:51.241Z,13.22
2023-05-13T05:33:53.561Z,13.39
2023-05-13T05:34:55.863Z,13.40
2023-05-13T05:35:58.367Z,13.55
2023-05-13T05:37:00.748Z,13.77
2023-05-13T05:38:07.674Z,13.88
2023-05-13T05:39:11.004Z,13.97
2023-05-13T05:40:13.622Z,14.04
2023-05-13T05:41:16.325Z,13.99
2023-05-13T05:42:19.196Z,14.12
2023-05-13T05:43:21.628Z,14.48
2023-05-13T05:44:23.881Z,14.58
2023-05-13T05:45:26.260Z,14.65
2023-05-13T05:46:28.501Z,14.86
2023-05-13T05:47:31.059Z,15.48
2023-05-13T05:48:34.922Z,15.95
2023-05-13T05:49:38.200Z,16.15
2023-05-13T05:50:41.504Z,16.72
2023-05-13T05:51:46.084Z,17.32
2023-05-13T05:52:48.593Z,17.47
2023-05-13T05:53:52.192Z,17.87
2023-05-13T05:54:54.927Z,18.25
2023-05-13T05:55:57.568Z,18.42
2023-05-13T05:56:59.813Z,18.97
2023-05-13T05:58:05.712Z,18.90
2023-05-13T05:59:10.418Z,19.10
2023-05-13T06:00:14.594Z,19.43
2023-05-13T06:01:19.395Z,19.13
2023-05-13T06:02:21.696Z,19.03
2023-05-13T06:03:25.714Z,19.11
2023-05-13T06:04:28.125Z,18.83
2023-05-13T06:05:30.544Z,19.03
2023-05-13T06:06:33.135Z,18.89
2023-05-13T06:07:35.632Z,19.21
2023-05-13T06:08:38.112Z,19.56
2023-05-13T06:09:40.584Z,19.92
2023-05-13T06:10:44.011Z,19.55
2023-05-13T06:11:46.807Z,19.43
2023-05-13T06:12:49.051Z,19.83
2023-05-13T06:13:51.740Z,19.19
2023-05-13T06:14:53.941Z,18.83
2023-05-13T06:15:56.264Z,19.15
2023-05-13T06:16:58.608Z,19.37
2023-05-13T06:18:01.803Z,19.75
2023-05-13T06:19:04.502Z,19.68
2023-05-13T06:20:07.319Z,19.22
2023-05-13T06:21:09.526Z,19.43
2023-05-13T06:22:12.270Z,19.06
2023-05-13T06:23:15.067Z,19.46
2023-05-13T06:24:17.327Z,19.61
2023-05-13T06:25:19.562Z,19.78
2023-05-13T06:26:22.185Z,20.19
2023-05-13T06:27:25.195Z,20.58
2023-05-13T06:28:27.380Z,20.77
2023-05-13T06:29:29.872Z,21.16
2023-05-13T06:30:32.236Z,21.22
2023-05-13T06:31:34.623Z,21.46
2023-05-13T06:32:39.440Z,21.61
2023-05-13T06:33:45.776Z,21.35
2023-05-13T06:34:48.679Z,21.19
2023-05-13T06:35:51.058Z,21.66
2023-05-13T06:37:58.380Z,19.87
2023-05-13T06:39:01.051Z,20.48
2023-05-13T06:40:04.464Z,20.77
2023-05-13T06:41:10.859Z,20.92
2023-05-13T06:42:14.429Z,21.47
2023-05-13T06:43:21.480Z,22.14
2023-05-13T06:44:31.360Z,22.30
2023-05-13T06:45:33.573Z,22.46
2023-05-13T06:46:37.940Z,21.20
2023-05-13T06:47:41.461Z,20.72
2023-05-13T06:48:46.045Z,20.31
2023-05-13T06:49:48.651Z,20.74
2023-05-13T06:50:52.204Z,21.40
2023-05-13T06:51:54.443Z,22.08
2023-05-13T06:52:57.868Z,22.70
2023-05-13T06:54:02.107Z,22.25
2023-05-13T06:55:04.840Z,21.77
2023-05-13T06:56:07.891Z,21.36
2023-05-13T06:57:12.224Z,21.08
2023-05-13T06:58:15.053Z,21.03
2023-05-13T06:59:17.496Z,21.33
2023-05-13T07:00:20.310Z,21.45
2023-05-13T07:01:22.845Z,22.03
2023-05-13T07:02:25.178Z,21.16
2023-05-13T07:03:27.465Z,21.10
2023-05-13T07:04:30.553Z,20.63
2023-05-13T07:05:33.993Z,20.55
2023-05-13T07:06:36.310Z,20.64
2023-05-13T07:07:39.281Z,21.08
2023-05-13T07:08:41.633Z,21.59
2023-05-13T07:09:44.189Z,21.98
2023-05-13T07:10:46.422Z,22.03
2023-05-13T07:11:48.645Z,21.46
2023-05-13T07:12:50.916Z,21.77
2023-05-13T07:13:53.134Z,22.58
2023-05-13T07:14:55.572Z,23.06
2023-05-13T07:15:57.767Z,23.27
2023-05-13T07:16:59.984Z,23.64
2023-05-13T07:18:02.436Z,23.52
2023-05-13T07:19:04.609Z,22.26
2023-05-13T07:20:07.797Z,22.84
2023-05-13T07:21:10.046Z,22.51
2023-05-13T07:22:12.290Z,23.19
2023-05-13T07:23:14.458Z,23.30
2023-05-13T07:24:16.985Z,22.77
2023-05-13T07:25:19.353Z,23.37
2023-05-13T07:26:21.692Z,23.19
2023-05-13T07:27:24.110Z,23.52
2023-05-13T07:28:26.427Z,22.87
2023-05-13T07:29:28.632Z,22.32
2023-05-13T07:30:31.368Z,21.18
2023-05-13T07:31:34.461Z,20.65
2023-05-13T07:32:37.115Z,19.69
2023-05-13T07:33:40.911Z,20.74
2023-05-13T07:34:43.125Z,21.65
2023-05-13T07:35:45.537Z,22.48
2023-05-13T07:36:47.734Z,22.99
2023-05-13T07:37:49.934Z,22.52
2023-05-13T07:38:52.461Z,21.59
2023-05-13T07:39:54.898Z,22.09
2023-05-13T07:40:57.298Z,22.86
2023-05-13T07:41:59.475Z,22.50
2023-05-13T07:43:02.055Z,22.56
2023-05-13T07:44:05.845Z,22.78
2023-05-13T07:45:08.705Z,22.46
2023-05-13T07:46:10.905Z,22.41
2023-05-13T07:47:13.997Z,22.20
2023-05-13T07:48:17.821Z,21.25
2023-05-13T07:49:21.317Z,21.37
2023-05-13T07:50:23.874Z,21.44
2023-05-13T07:51:26.165Z,21.73
2023-05-13T07:52:28.488Z,21.21
2023-05-13T07:53:30.883Z,21.81
2023-05-13T07:54:33.169Z,22.37
2023-05-13T07:55:35.636Z,23.00
2023-05-13T07:56:38.529Z,21.95
2023-05-13T07:57:40.809Z,22.05
2023-05-13T07:58:43.180Z,22.48
2023-05-13T07:59:45.680Z,21.96
2023-05-13T08:00:49.546Z,21.71
2023-05-13T08:01:51.931Z,21.71
2023-05-13T08:02:54.418Z,22.25
2023-05-13T08:03:56.947Z,22.78
2023-05-13T08:04:59.533Z,23.21
2023-05-13T08:06:01.742Z,23.22
2023-05-13T08:07:14.094Z,23.70
2023-05-13T08:08:16.485Z,23.07
2023-05-13T08:09:18.697Z,22.51
2023-05-13T08:10:21.251Z,22.86
2023-05-13T08:11:23.919Z,23.39
2023-05-13T08:12:26.128Z,23.02
2023-05-13T08:13:28.535Z,22.29
2023-05-13T08:14:30.707Z,21.80
2023-05-13T08:15:32.932Z,22.53
2023-05-13T08:16:38.878Z,22.72
2023-05-13T08:17:41.122Z,23.10
2023-05-13T08:18:43.366Z,22.93
2023-05-13T08:19:46.240Z,22.66
2023-05-13T08:20:48.443Z,22.85
2023-05-13T08:21:51.074Z,22.98
2023-05-13T08:22:53.254Z,23.59
2023-05-13T08:23:55.481Z,23.54
2023-05-13T08:24:59.419Z,23.38
2023-05-13T08:26:01.884Z,23.31
2023-05-13T08:27:05.703Z,23.74
2023-05-13T08:28:08.094Z,23.87
2023-05-13T08:29:14.019Z,23.62
2023-05-13T08:30:16.729Z,24.07
2023-05-13T08:31:19.175Z,23.81
2023-05-13T08:32:21.850Z,23.24
2023-05-13T08:33:24.189Z,22.98
2023-05-13T08:34:26.566Z,23.17
2023-05-13T08:35:28.935Z,23.50
2023-05-13T08:36:31.528Z,23.94
2023-05-13T08:37:33.717Z,24.07
2023-05-13T08:38:35.913Z,24.37
2023-05-13T08:39:38.150Z,24.73
2023-05-13T08:40:42.418Z,24.91
2023-05-13T08:41:52.081Z,24.42
2023-05-13T08:42:57.725Z,24.35
2023-05-13T08:44:00.810Z,24.30
2023-05-13T08:45:05.677Z,24.74
2023-05-13T08:46:11.923Z,25.00
2023-05-13T08:47:27.016Z,24.60
2023-05-13T08:48:30.043Z,24.31
2023-05-13T08:49:34.242Z,23.75
2023-05-13T08:50:37.120Z,23.20
2023-05-13T08:51:41.104Z,23.06
2023-05-13T08:52:44.077Z,23.21
2023-05-13T08:53:47.988Z,23.59
2023-05-13T08:54:50.392Z,23.83
2023-05-13T08:55:54.125Z,23.49
2023-05-13T08:56:56.494Z,23.77
2023-05-13T08:57:58.916Z,23.67
2023-05-13T08:59:01.111Z,23.91
2023-05-13T09:00:04.848Z,23.36
2023-05-13T09:01:07.813Z,23.37
2023-05-13T09:02:10.879Z,23.36
2023-05-13T09:03:14.101Z,23.48
2023-05-13T09:04:17.742Z,23.13
2023-05-13T09:05:21.919Z,23.30
2023-05-13T09:06:24.417Z,23.70
2023-05-13T09:07:26.921Z,24.09
2023-05-13T09:08:29.132Z,24.36
2023-05-13T09:09:31.614Z,24.48
2023-05-13T09:10:33.808Z,24.12
2023-05-13T09:11:36.167Z,23.83
2023-05-13T09:12:52.624Z,23.92
2023-05-13T09:14:06.456Z,23.66
2023-05-13T09:15:10.419Z,23.50
2023-05-13T09:16:14.270Z,24.07
2023-05-13T09:17:17.790Z,24.39
2023-05-13T09:18:20.343Z,23.97
2023-05-13T09:19:24.517Z,23.84
2023-05-13T09:20:27.768Z,23.59
2023-05-13T09:21:32.235Z,24.11
2023-05-13T09:22:34.390Z,24.56
2023-05-13T09:23:36.899Z,24.57
2023-05-13T09:24:39.203Z,24.06
2023-05-13T09:25:41.753Z,23.90
2023-05-13T09:26:45.330Z,24.00
2023-05-13T09:27:49.272Z,23.93
2023-05-13T09:29:14.504Z,23.91
2023-05-13T09:30:16.741Z,23.34
2023-05-13T09:31:33.004Z,23.62
2023-05-13T09:32:35.483Z,22.58
2023-05-13T09:33:38.326Z,22.75
2023-05-13T09:34:40.497Z,23.14
2023-05-13T09:35:45.096Z,23.43
2023-05-13T09:37:04.768Z,23.70
2023-05-13T09:38:14.503Z,23.58
2023-05-13T09:39:16.986Z,23.26
2023-05-13T09:40:19.486Z,23.46
2023-05-13T09:41:21.801Z,23.06
2023-05-13T09:42:24.023Z,23.00
2023-05-13T09:43:39.119Z,23.01
2023-05-13T09:44:42.399Z,22.68
2023-05-13T09:45:44.994Z,22.51
2023-05-13T09:46:47.412Z,22.65
2023-05-13T09:47:53.424Z,23.11
2023-05-13T09:48:58.857Z,23.00
2023-05-13T09:50:02.322Z,23.11
2023-05-13T09:51:05.110Z,23.38
2023-05-13T09:52:11.504Z,23.40
2023-05-13T09:53:13.674Z,23.43
2023-05-13T09:54:16.734Z,23.36
2023-05-13T09:55:19.023Z,23.49
2023-05-13T09:56:24.030Z,23.31
2023-05-13T09:57:29.956Z,23.24
2023-05-13T09:58:32.484Z,23.28
2023-05-13T09:59:35.594Z,23.59
2023-05-13T10:00:40.473Z,23.44
2023-05-13T10:01:43.745Z,22.66
2023-05-13T10:02:46.240Z,22.87
2023-05-13T10:03:49.037Z,22.46
2023-05-13T10:04:52.488Z,22.56
2023-05-13T10:05:55.269Z,22.18
2023-05-13T10:06:58.939Z,22.32
2023-05-13T10:08:02.446Z,22.58
2023-05-13T10:09:08.317Z,22.40
2023-05-13T10:10:11.475Z,22.30
2023-05-13T10:11:15.745Z,22.58
2023-05-13T10:12:20.811Z,22.62
2023-05-13T10:13:24.980Z,22.96
2023-05-13T10:14:28.306Z,23.34
2023-05-13T10:15:31.149Z,23.50
2023-05-13T10:16:33.677Z,23.16
2023-05-13T10:17:36.579Z,23.17
2023-05-13T10:18:39.292Z,22.95
2023-05-13T10:19:42.150Z,23.18
2023-05-13T10:20:44.831Z,23.45
2023-05-13T10:21:47.735Z,23.30
2023-05-13T10:22:51.057Z,23.20
2023-05-13T10:23:53.828Z,22.93
2023-05-13T10:24:58.439Z,23.11
2023-05-13T10:26:01.199Z,22.81
2023-05-13T10:27:05.181Z,23.05
2023-05-13T10:28:08.865Z,23.06
2023-05-13T10:29:11.700Z,23.22
2023-05-13T10:30:14.459Z,22.86
2023-05-13T10:31:17.649Z,22.47
2023-05-13T10:32:20.819Z,22.35
2023-05-13T10:33:23.202Z,21.96
2023-05-13T10:34:26.427Z,21.99
2023-05-13T10:35:36.725Z,21.95
2023-05-13T10:36:48.084Z,21.90
2023-05-13T10:38:10.677Z,21.92
2023-05-13T10:39:59.554Z,22.09
2023-05-13T10:41:09.767Z,22.17
2023-05-13T10:42:27.487Z,22.15
2023-05-13T10:43:32.732Z,22.37
2023-05-13T10:44:35.726Z,22.56
2023-05-13T10:45:38.246Z,22.33
2023-05-13T10:46:42.909Z,22.46
2023-05-13T10:47:50.338Z,22.54
2023-05-13T10:48:57.113Z,22.36
2023-05-13T10:50:04.955Z,22.38
2023-05-13T10:51:08.300Z,22.24
2023-05-13T10:52:14.353Z,22.47
2023-05-13T10:53:23.741Z,22.63
2023-05-13T10:54:26.004Z,22.24
2023-05-13T10:55:28.628Z,22.05
2023-05-13T10:56:30.988Z,22.18
2023-05-13T10:57:37.898Z,22.00
2023-05-13T10:58:40.490Z,22.10
2023-05-13T11:00:19.052Z,21.92
2023-05-13T11:01:44.218Z,22.07
2023-05-13T11:02:46.689Z,22.15
2023-05-13T11:04:00.066Z,21.59
2023-05-13T11:05:04.908Z,21.54
2023-05-13T11:06:13.512Z,21.79
2023-05-13T11:07:16.732Z,21.81
2023-05-13T11:08:45.769Z,21.98
2023-05-13T11:09:51.575Z,21.93
2023-05-13T11:10:57.503Z,21.72
2023-05-13T11:12:00.653Z,21.33
2023-05-13T11:13:15.256Z,21.75
2023-05-13T11:14:19.362Z,21.96
2023-05-13T11:15:22.474Z,21.94
2023-05-13T11:16:24.860Z,21.88
2023-05-13T11:17:27.410Z,21.62
2023-05-13T11:18:30.767Z,21.67
2023-05-13T11:19:37.293Z,21.57
2023-05-13T11:20:51.526Z,21.54
2023-05-13T11:21:57.120Z,21.79
2023-05-13T11:23:00.194Z,21.76
2023-05-13T11:24:05.528Z,21.81
2023-05-13T11:25:09.773Z,22.21
2023-05-13T11:26:16.225Z,22.29
2023-05-13T11:27:20.748Z,22.39
2023-05-13T11:29:03.703Z,22.30
2023-05-13T11:30:07.803Z,22.13
2023-05-13T11:31:17.453Z,21.76
2023-05-13T11:32:56.391Z,21.71
2023-05-13T11:34:13.658Z,22.23
2023-05-13T11:35:20.801Z,22.61
2023-05-13T11:36:31.002Z,22.70
2023-05-13T11:37:33.520Z,22.64
2023-05-13T11:38:36.027Z,22.86
2023-05-13T11:39:42.009Z,22.14
2023-05-13T11:40:44.565Z,22.04
2023-05-13T11:41:49.208Z,22.34
2023-05-13T11:42:51.598Z,22.36
2023-05-13T11:43:54.156Z,22.34
2023-05-13T11:44:56.481Z,22.61
2023-05-13T11:45:59.547Z,22.80
2023-05-13T11:47:08.187Z,22.81
2023-05-13T11:48:22.377Z,22.48
2023-05-13T11:49:39.040Z,22.11
2023-05-13T11:50:41.482Z,22.04
2023-05-13T11:51:43.864Z,22.05
2023-05-13T11:52:51.748Z,22.30
2023-05-13T11:54:03.119Z,22.60
2023-05-13T11:55:07.141Z,22.32
2023-05-13T11:56:13.069Z,21.99
2023-05-13T11:57:25.430Z,22.35
2023-05-13T11:58:27.924Z,22.78
2023-05-13T11:59:38.668Z,22.96
2023-05-13T12:00:54.860Z,22.46
2023-05-13T12:02:03.460Z,22.62
2023-05-13T12:03:11.828Z,22.31
2023-05-13T12:04:14.522Z,22.51
2023-05-13T12:05:16.806Z,22.56
2023-05-13T12:06:19.311Z,22.47
2023-05-13T12:07:23.130Z,22.23
2023-05-13T12:08:25.353Z,21.88
2023-05-13T12:09:27.961Z,21.90
2023-05-13T12:10:30.133Z,21.72
2023-05-13T12:11:33.380Z,21.86
2023-05-13T12:12:41.136Z,21.95
2023-05-13T12:13:43.527Z,22.04
2023-05-13T12:14:47.525Z,22.30
2023-05-13T12:15:50.303Z,22.34
2023-05-13T12:16:52.563Z,22.33
2023-05-13T12:17:55.135Z,22.01
2023-05-13T12:19:04.830Z,22.17
2023-05-13T12:20:13.568Z,22.30
2023-05-13T12:21:17.359Z,22.54
2023-05-13T12:22:22.195Z,22.42
2023-05-13T12:23:24.643Z,22.24
2023-05-13T12:24:27.450Z,22.18
2023-05-13T12:25:36.320Z,22.13
2023-05-13T12:26:39.341Z,22.23
2023-05-13T12:27:41.733Z,22.07
2023-05-13T12:28:44.085Z,21.93
2023-05-13T12:29:46.768Z,22.11
2023-05-13T12:30:56.681Z,22.24
2023-05-13T12:32:06.266Z,22.18
2023-05-13T12:33:16.377Z,22.31
2023-05-13T12:34:32.516Z,22.31
2023-05-13T12:35:34.988Z,22.43
2023-05-13T12:36:38.892Z,22.54
2023-05-13T12:37:41.656Z,22.43
2023-05-13T12:38:59.807Z,22.46
2023-05-13T12:40:13.191Z,21.93
2023-05-13T12:41:15.389Z,22.00
2023-05-13T12:42:18.654Z,21.92
2023-05-13T12:43:20.921Z,22.18
2023-05-13T12:44:23.091Z,22.48
2023-05-13T12:45:33.030Z,22.29
2023-05-13T12:46:35.879Z,22.10
2023-05-13T12:48:04.320Z,22.36
2023-05-13T12:49:09.458Z,22.01
2023-05-13T12:50:11.866Z,21.76
2023-05-13T12:51:16.005Z,21.73
2023-05-13T12:52:18.215Z,21.98
2023-05-13T12:53:21.345Z,21.97
2023-05-13T12:54:23.578Z,21.94
2023-05-13T12:55:27.299Z,21.98
2023-05-13T12:56:29.842Z,22.11
2023-05-13T12:57:32.435Z,22.19
2023-05-13T12:58:34.824Z,22.21
2023-05-13T12:59:37.281Z,22.21
2023-05-13T13:00:39.583Z,22.16
2023-05-13T13:01:43.095Z,21.94
2023-05-13T13:02:45.513Z,22.15
2023-05-13T13:03:47.875Z,22.17
2023-05-13T13:04:50.333Z,22.11
2023-05-13T13:05:52.774Z,22.02
2023-05-13T13:06:54.981Z,22.20
2023-05-13T13:07:57.444Z,22.34
2023-05-13T13:08:59.635Z,22.40
2023-05-13T13:10:01.842Z,22.64
2023-05-13T13:11:04.694Z,22.67
2023-05-13T13:12:07.188Z,22.68
2023-05-13T13:13:09.873Z,22.63
2023-05-13T13:14:12.006Z,22.64
2023-05-13T13:15:14.272Z,22.77
2023-05-13T13:16:16.701Z,22.89
2023-05-13T13:17:18.901Z,22.82
2023-05-13T13:18:21.317Z,22.67
2023-05-13T13:19:23.773Z,22.56
2023-05-13T13:20:26.202Z,22.50
2023-05-13T13:21:28.632Z,22.38
2023-05-13T13:22:31.759Z,22.59
2023-05-13T13:23:34.556Z,22.79
2023-05-13T13:24:36.999Z,22.64
2023-05-13T13:25:40.673Z,22.64
2023-05-13T13:26:43.080Z,22.79
2023-05-13T13:27:45.302Z,22.96
2023-05-13T13:28:47.757Z,22.76
2023-05-13T13:29:52.790Z,22.48
2023-05-13T13:30:59.076Z,22.34
2023-05-13T13:32:01.553Z,22.59
2023-05-13T13:33:07.096Z,22.55
2023-05-13T13:34:12.018Z,22.45
2023-05-13T13:35:14.244Z,22.49
2023-05-13T13:36:17.116Z,22.40
2023-05-13T13:37:19.539Z,22.60
2023-05-13T13:38:21.724Z,22.74
2023-05-13T13:39:28.559Z,22.87
2023-05-13T13:40:30.809Z,23.11
2023-05-13T13:41:33.219Z,23.24
2023-05-13T13:42:43.965Z,23.25
2023-05-13T13:43:47.926Z,23.22
2023-05-13T13:44:50.116Z,22.84
2023-05-13T13:45:52.753Z,22.52
2023-05-13T13:46:55.241Z,22.10
2023-05-13T13:47:57.921Z,22.18
2023-05-13T13:49:02.166Z,22.21
2023-05-13T13:50:06.688Z,21.99
2023-05-13T13:51:09.195Z,21.93
2023-05-13T13:52:11.410Z,21.92